Time;durP1;ratioP1;P1;durP2;ratioP2;P2;SDS_P1;SDS_P2;PMS_P1;PMS_P2;Temp;Humidity;BMP_temperature;BMP_pressure;BME280_temperature;BME280_humidity;BME280_pressure;Samples;Min_cycle;Max_cycle;Signal;HPM_P1;HPM_P2
2021/03/10 00:00:38;;;;;;;17.35;13.45;;;;;;;;;;5023350;28;21161;-76
2021/03/10 00:03:04;;;;;;;16.63;13.23;;;;;;;;;;5021496;28;20415;-75
2021/03/10 00:05:30;;;;;;;19.80;14.15;;;;;;;;;;5023507;28;20860;-76
2021/03/10 00:07:55;;;;;;;19.13;14.30;;;;;;;;;;5021867;28;20477;-74
2021/03/10 00:10:21;;;;;;;20.17;14.15;;;;;;;;;;5003193;28;20406;-75
2021/03/10 00:12:47;;;;;;;18.50;13.30;;;;;;;;;;5023838;28;20823;-75
2021/03/10 00:15:14;;;;;;;18.55;13.00;;;;;;;;;;5026599;28;20510;-75
2021/03/10 00:17:42;;;;;;;21.40;15.82;;;;;;;;;;5026352;28;20468;-76
2021/03/10 00:20:09;;;;;;;23.48;17.70;;;;;;;;;;5025643;28;20426;-75
2021/03/10 00:22:35;;;;;;;27.70;20.33;;;;;;;;;;5026727;28;20406;-74
2021/03/10 00:25:01;;;;;;;29.42;21.27;;;;;;;;;;5025875;28;20404;-76
2021/03/10 00:27:27;;;;;;;28.97;20.47;;;;;;;;;;5003033;28;20395;-75
2021/03/10 00:29:53;;;;;;;24.08;17.45;;;;;;;;;;5025571;28;20430;-74
2021/03/10 00:32:20;;;;;;;22.13;15.90;;;;;;;;;;5025662;28;21427;-75
2021/03/10 00:34:47;;;;;;;23.05;16.17;;;;;;;;;;5025370;28;20407;-75
2021/03/10 00:37:13;;;;;;;23.65;16.48;;;;;;;;;;5026486;28;20460;-75
2021/03/10 00:39:39;;;;;;;21.40;14.80;;;;;;;;;;5027891;28;20399;-74
2021/03/10 00:42:05;;;;;;;19.92;14.55;;;;;;;;;;5026243;28;20395;-75
2021/03/10 00:44:31;;;;;;;18.98;13.57;;;;;;;;;;5025159;28;20521;-76
2021/03/10 00:46:57;;;;;;;19.27;14.23;;;;;;;;;;5026174;28;20490;-74
2021/03/10 00:49:23;;;;;;;20.80;16.13;;;;;;;;;;5008941;28;20417;-75
2021/03/10 00:51:49;;;;;;;24.10;17.67;;;;;;;;;;5024962;28;20417;-75
2021/03/10 00:54:15;;;;;;;25.33;17.93;;;;;;;;;;5025049;28;20478;-75
2021/03/10 00:56:41;;;;;;;22.08;16.67;;;;;;;;;;5025952;28;20482;-75
2021/03/10 00:59:07;;;;;;;18.70;14.40;;;;;;;;;;5016360;28;20923;-74
2021/03/10 01:01:33;;;;;;;19.85;14.77;;;;;;;;;;5005733;28;20401;-74
2021/03/10 01:03:59;;;;;;;18.52;14.25;;;;;;;;;;5005502;28;20397;-74
2021/03/10 01:06:25;;;;;;;18.50;14.60;;;;;;;;;;5005093;28;20398;-74
2021/03/10 01:08:54;;;;;;;17.48;13.52;;;;;;;;;;5002125;28;20549;-75
2021/03/10 01:11:20;;;;;;;18.92;14.55;;;;;;;;;;5005592;28;20416;-74
2021/03/10 01:13:46;;;;;;;17.80;13.88;;;;;;;;;;5004008;28;20542;-75
2021/03/10 01:16:13;;;;;;;17.60;12.52;;;;;;;;;;5004515;28;20401;-75
2021/03/10 01:18:39;;;;;;;18.47;12.90;;;;;;;;;;5004800;28;20857;-74
2021/03/10 01:21:05;;;;;;;16.52;12.25;;;;;;;;;;5004170;28;20413;-75
2021/03/10 01:23:31;;;;;;;17.60;12.95;;;;;;;;;;5004821;28;20403;-74
2021/03/10 01:25:57;;;;;;;17.80;13.10;;;;;;;;;;5003847;28;20583;-74
2021/03/10 01:28:23;;;;;;;18.08;13.77;;;;;;;;;;5004463;28;20495;-74
2021/03/10 01:30:49;;;;;;;20.43;15.07;;;;;;;;;;5004545;28;20407;-74
2021/03/10 01:33:16;;;;;;;18.65;14.30;;;;;;;;;;5005442;28;20425;-74
2021/03/10 01:35:42;;;;;;;19.03;14.57;;;;;;;;;;5000185;28;21023;-74
2021/03/10 01:38:08;;;;;;;18.33;13.55;;;;;;;;;;5004612;28;20400;-75
2021/03/10 01:40:34;;;;;;;16.77;13.02;;;;;;;;;;5004732;28;20400;-75
2021/03/10 01:43:03;;;;;;;19.10;13.32;;;;;;;;;;5006730;28;20968;-75
2021/03/10 01:45:29;;;;;;;18.67;13.80;;;;;;;;;;5004375;28;20420;-75
2021/03/10 01:47:56;;;;;;;18.53;13.43;;;;;;;;;;5004505;28;20401;-75
2021/03/10 01:50:23;;;;;;;18.23;13.17;;;;;;;;;;5004571;28;20466;-75
2021/03/10 01:52:49;;;;;;;19.42;13.82;;;;;;;;;;5004560;28;20583;-74
2021/03/10 01:55:15;;;;;;;19.70;13.85;;;;;;;;;;5002111;28;20475;-74
2021/03/10 01:57:41;;;;;;;17.92;13.27;;;;;;;;;;5004672;28;20412;-75
2021/03/10 02:00:08;;;;;;;18.08;12.95;;;;;;;;;;5020941;28;20430;-75
2021/03/10 02:02:34;;;;;;;18.65;14.00;;;;;;;;;;5025534;28;20391;-76
2021/03/10 02:05:01;;;;;;;17.83;13.67;;;;;;;;;;5023400;28;20590;-76
2021/03/10 02:07:37;;;;;;;18.33;13.83;;;;;;;;;;5024634;28;20914;-74
2021/03/10 02:10:03;;;;;;;21.95;13.95;;;;;;;;;;5024751;28;20403;-75
2021/03/10 02:13:04;;;;;;;20.13;14.60;;;;;;;;;;5024517;28;20876;-75
2021/03/10 02:15:45;;;;;;;18.38;14.27;;;;;;;;;;4933336;29;20417;-74
2021/03/10 02:18:22;;;;;;;18.83;13.90;;;;;;;;;;5000153;28;20602;-75
2021/03/10 02:20:49;;;;;;;19.48;14.18;;;;;;;;;;5022692;28;20406;-75
2021/03/10 02:23:27;;;;;;;21.42;14.48;;;;;;;;;;5024547;28;20410;-74
2021/03/10 02:26:12;;;;;;;19.65;13.80;;;;;;;;;;5022626;28;20794;-74
2021/03/10 02:28:39;;;;;;;18.35;13.35;;;;;;;;;;5021855;28;20526;-74
2021/03/10 02:31:08;;;;;;;16.65;13.27;;;;;;;;;;5002611;28;20460;-75
2021/03/10 02:33:35;;;;;;;15.23;11.67;;;;;;;;;;5023522;28;20554;-75
2021/03/10 02:36:03;;;;;;;16.88;12.90;;;;;;;;;;5004048;28;20421;-75
2021/03/10 02:38:29;;;;;;;18.75;13.95;;;;;;;;;;5024400;28;20402;-75
2021/03/10 02:40:56;;;;;;;17.33;13.65;;;;;;;;;;5023129;28;20410;-75
2021/03/10 02:43:22;;;;;;;19.80;14.30;;;;;;;;;;5006909;28;20426;-75
2021/03/10 02:45:50;;;;;;;19.73;14.23;;;;;;;;;;5002172;28;20417;-75
2021/03/10 02:48:17;;;;;;;20.10;14.40;;;;;;;;;;5023058;28;20441;-75
2021/03/10 02:50:43;;;;;;;17.77;14.07;;;;;;;;;;5023934;28;20782;-75
2021/03/10 02:53:09;;;;;;;20.83;14.60;;;;;;;;;;5023535;28;20449;-74
2021/03/10 02:55:36;;;;;;;20.88;15.35;;;;;;;;;;5022801;28;20418;-74
2021/03/10 02:58:02;;;;;;;21.35;15.07;;;;;;;;;;5004685;28;20407;-75
2021/03/10 03:00:28;;;;;;;21.30;15.45;;;;;;;;;;5023018;28;20419;-75
2021/03/10 03:02:54;;;;;;;21.47;15.97;;;;;;;;;;5024134;28;20417;-74
2021/03/10 03:05:21;;;;;;;24.35;16.63;;;;;;;;;;5022727;28;20403;-74
2021/03/10 03:07:49;;;;;;;23.75;16.73;;;;;;;;;;5021580;28;20426;-74
2021/03/10 03:10:16;;;;;;;22.52;16.48;;;;;;;;;;5022948;28;20402;-74
2021/03/10 03:12:44;;;;;;;22.33;16.40;;;;;;;;;;5003156;28;20467;-74
2021/03/10 03:15:11;;;;;;;19.17;14.75;;;;;;;;;;5024748;28;20474;-74
2021/03/10 03:17:37;;;;;;;20.80;15.23;;;;;;;;;;5022951;28;20410;-73
2021/03/10 03:20:04;;;;;;;20.17;15.55;;;;;;;;;;5023403;28;20407;-74
2021/03/10 03:22:31;;;;;;;25.10;17.60;;;;;;;;;;5022012;28;20468;-74
2021/03/10 03:24:57;;;;;;;23.83;17.02;;;;;;;;;;5024455;28;20788;-75
2021/03/10 03:27:26;;;;;;;21.77;16.43;;;;;;;;;;5000775;28;20409;-74
2021/03/10 03:29:56;;;;;;;23.08;16.23;;;;;;;;;;5022442;28;20479;-74
2021/03/10 03:32:23;;;;;;;21.87;16.23;;;;;;;;;;5023012;28;20459;-75
2021/03/10 03:34:50;;;;;;;21.73;16.63;;;;;;;;;;5026313;28;20502;-75
2021/03/10 03:37:16;;;;;;;20.23;15.15;;;;;;;;;;5019513;28;20426;-75
2021/03/10 03:39:42;;;;;;;21.67;16.30;;;;;;;;;;5022640;28;20494;-75
2021/03/10 03:42:08;;;;;;;22.35;17.02;;;;;;;;;;5005554;28;20505;-74
2021/03/10 03:44:34;;;;;;;23.52;17.15;;;;;;;;;;5016508;28;20407;-75
2021/03/10 03:47:00;;;;;;;22.23;16.67;;;;;;;;;;5005564;28;20490;-74
2021/03/10 03:49:26;;;;;;;21.63;16.75;;;;;;;;;;5024557;28;21157;-75
2021/03/10 03:51:52;;;;;;;26.77;18.58;;;;;;;;;;5021444;28;20427;-74
2021/03/10 03:54:18;;;;;;;24.53;16.80;;;;;;;;;;5024861;28;20391;-74
2021/03/10 03:56:44;;;;;;;24.25;18.17;;;;;;;;;;5024966;28;21156;-76
2021/03/10 03:59:10;;;;;;;25.60;18.95;;;;;;;;;;5023707;28;21146;-75
2021/03/10 04:01:36;;;;;;;28.37;19.30;;;;;;;;;;5025995;28;20840;-75
2021/03/10 04:04:01;;;;;;;29.67;20.17;;;;;;;;;;5024666;28;21550;-74
2021/03/10 04:06:27;;;;;;;27.80;19.95;;;;;;;;;;5024876;28;20410;-74
2021/03/10 04:08:53;;;;;;;28.60;20.33;;;;;;;;;;5024979;28;20391;-74
2021/03/10 04:11:19;;;;;;;27.50;20.50;;;;;;;;;;5005161;28;20410;-74
2021/03/10 04:13:45;;;;;;;27.42;20.52;;;;;;;;;;5025868;28;20513;-75
2021/03/10 04:16:12;;;;;;;27.55;19.25;;;;;;;;;;5007924;28;20474;-75
2021/03/10 04:18:38;;;;;;;28.73;20.95;;;;;;;;;;5025348;28;20406;-75
2021/03/10 04:21:05;;;;;;;27.67;19.97;;;;;;;;;;5006436;28;20401;-74
2021/03/10 04:23:31;;;;;;;29.33;20.95;;;;;;;;;;5026490;28;20399;-75
2021/03/10 04:25:57;;;;;;;26.83;20.15;;;;;;;;;;5006117;28;21014;-74
2021/03/10 04:28:23;;;;;;;25.73;18.90;;;;;;;;;;5025278;28;20418;-75
2021/03/10 04:30:49;;;;;;;24.57;18.60;;;;;;;;;;5026608;28;20408;-75
2021/03/10 04:33:15;;;;;;;25.10;18.15;;;;;;;;;;5026327;28;20433;-75
2021/03/10 04:35:41;;;;;;;25.33;18.67;;;;;;;;;;5025931;28;20438;-75
2021/03/10 04:38:07;;;;;;;27.63;20.08;;;;;;;;;;5005241;28;20415;-75
2021/03/10 04:40:33;;;;;;;25.63;18.92;;;;;;;;;;5026453;28;20430;-75
2021/03/10 04:42:59;;;;;;;27.90;19.02;;;;;;;;;;5025521;28;20426;-75
2021/03/10 04:45:25;;;;;;;23.10;18.13;;;;;;;;;;5024716;28;20405;-74
2021/03/10 04:47:51;;;;;;;22.70;17.60;;;;;;;;;;5003743;28;20494;-76
2021/03/10 04:50:18;;;;;;;24.80;18.50;;;;;;;;;;5006466;28;20399;-74
2021/03/10 04:52:44;;;;;;;26.23;18.83;;;;;;;;;;5025165;28;20423;-74
2021/03/10 04:55:11;;;;;;;23.10;18.45;;;;;;;;;;5025847;28;20988;-74
2021/03/10 04:57:37;;;;;;;24.63;18.52;;;;;;;;;;5023009;28;20415;-75
2021/03/10 05:00:05;;;;;;;24.02;17.55;;;;;;;;;;5007942;28;20424;-75
2021/03/10 05:02:31;;;;;;;26.77;19.67;;;;;;;;;;5004814;28;20404;-76
2021/03/10 05:04:57;;;;;;;25.93;18.27;;;;;;;;;;5005903;28;20415;-75
2021/03/10 05:07:23;;;;;;;27.30;18.35;;;;;;;;;;5004989;28;20392;-75
2021/03/10 05:09:49;;;;;;;25.23;17.77;;;;;;;;;;5005183;28;20474;-75
2021/03/10 05:12:15;;;;;;;24.83;17.17;;;;;;;;;;5005173;28;20447;-75
2021/03/10 05:14:41;;;;;;;23.58;17.33;;;;;;;;;;5004852;28;20686;-75
2021/03/10 05:17:07;;;;;;;25.40;17.93;;;;;;;;;;5003845;28;20454;-76
2021/03/10 05:19:33;;;;;;;24.17;17.02;;;;;;;;;;5005057;28;20409;-74
2021/03/10 05:21:59;;;;;;;23.97;18.03;;;;;;;;;;5004495;28;20411;-75
2021/03/10 05:24:25;;;;;;;28.27;19.35;;;;;;;;;;5006199;28;20393;-75
2021/03/10 05:26:51;;;;;;;23.33;17.23;;;;;;;;;;5001477;28;20400;-75
2021/03/10 05:29:17;;;;;;;23.20;17.27;;;;;;;;;;5005193;28;20392;-75
2021/03/10 05:31:43;;;;;;;26.58;18.05;;;;;;;;;;5005066;28;20499;-75
2021/03/10 05:34:09;;;;;;;23.23;16.50;;;;;;;;;;5002875;28;20838;-76
2021/03/10 05:36:36;;;;;;;24.15;17.67;;;;;;;;;;5003659;28;20413;-75
2021/03/10 05:39:03;;;;;;;22.08;16.45;;;;;;;;;;5003668;28;20412;-76
2021/03/10 05:41:30;;;;;;;24.77;18.25;;;;;;;;;;5002267;28;20407;-75
2021/03/10 05:43:57;;;;;;;23.60;18.17;;;;;;;;;;5001015;28;20488;-75
2021/03/10 05:46:23;;;;;;;26.17;18.95;;;;;;;;;;5002869;28;20790;-75
2021/03/10 05:48:50;;;;;;;27.17;19.85;;;;;;;;;;4999368;28;20432;-75
2021/03/10 05:51:18;;;;;;;28.73;20.60;;;;;;;;;;5004304;28;20389;-75
2021/03/10 05:53:44;;;;;;;30.10;19.93;;;;;;;;;;5003212;28;20472;-75
2021/03/10 05:56:10;;;;;;;27.90;20.85;;;;;;;;;;5001827;28;20955;-75
2021/03/10 05:58:36;;;;;;;28.52;21.52;;;;;;;;;;5008240;28;20501;-75
2021/03/10 06:01:02;;;;;;;28.75;20.58;;;;;;;;;;5001918;28;21007;-76
2021/03/10 06:03:28;;;;;;;29.58;22.52;;;;;;;;;;5022019;28;20407;-78
2021/03/10 06:06:01;;;;;;;29.55;21.92;;;;;;;;;;5022026;28;20477;-77
2021/03/10 06:08:34;;;;;;;28.35;22.00;;;;;;;;;;5021293;28;20402;-76
2021/03/10 06:11:01;;;;;;;29.20;21.30;;;;;;;;;;5006120;28;20403;-78
2021/03/10 06:13:28;;;;;;;27.83;21.67;;;;;;;;;;5004195;28;21069;-76
2021/03/10 06:15:55;;;;;;;30.33;21.48;;;;;;;;;;5022172;28;20856;-77
2021/03/10 06:18:29;;;;;;;30.70;21.83;;;;;;;;;;5023750;28;20449;-78
2021/03/10 06:21:04;;;;;;;30.30;22.23;;;;;;;;;;5005683;28;20400;-76
2021/03/10 06:23:32;;;;;;;33.70;24.30;;;;;;;;;;5003141;28;20429;-75
2021/03/10 06:25:58;;;;;;;28.92;21.33;;;;;;;;;;5021127;28;20882;-75
2021/03/10 06:28:37;;;;;;;32.72;22.92;;;;;;;;;;5022717;28;20395;-77
2021/03/10 06:31:03;;;;;;;31.53;23.00;;;;;;;;;;5004394;28;20943;-75
2021/03/10 06:33:30;;;;;;;33.30;23.75;;;;;;;;;;5023867;28;20427;-75
2021/03/10 06:35:55;;;;;;;35.80;23.98;;;;;;;;;;5024294;28;20435;-74
2021/03/10 06:38:21;;;;;;;40.30;27.60;;;;;;;;;;5021586;28;20443;-76
2021/03/10 06:40:52;;;;;;;36.33;26.37;;;;;;;;;;5005405;28;20395;-74
2021/03/10 06:43:18;;;;;;;35.95;26.33;;;;;;;;;;5024233;28;20402;-76
2021/03/10 06:45:44;;;;;;;35.78;26.88;;;;;;;;;;5007700;28;20388;-76
2021/03/10 06:48:18;;;;;;;39.85;29.40;;;;;;;;;;5025136;28;20399;-75
2021/03/10 06:50:44;;;;;;;37.80;28.25;;;;;;;;;;5027371;28;20470;-75
2021/03/10 06:53:10;;;;;;;39.67;27.75;;;;;;;;;;5009267;28;21026;-75
2021/03/10 06:55:37;;;;;;;40.65;29.58;;;;;;;;;;5026252;28;20391;-74
2021/03/10 06:58:03;;;;;;;41.80;29.45;;;;;;;;;;5023099;28;20425;-74
2021/03/10 07:00:29;;;;;;;41.75;29.13;;;;;;;;;;5023522;28;20415;-74
2021/03/10 07:02:55;;;;;;;42.33;30.92;;;;;;;;;;5022501;28;20464;-75
2021/03/10 07:05:22;;;;;;;47.00;31.58;;;;;;;;;;5024195;28;20631;-75
2021/03/10 07:07:48;;;;;;;43.88;31.55;;;;;;;;;;5027459;28;20431;-76
2021/03/10 07:10:14;;;;;;;46.90;31.50;;;;;;;;;;5027356;28;20694;-75
2021/03/10 07:12:40;;;;;;;46.20;33.83;;;;;;;;;;5024353;28;20419;-75
2021/03/10 07:15:06;;;;;;;44.92;31.80;;;;;;;;;;5010341;28;20448;-74
2021/03/10 07:17:32;;;;;;;45.63;31.45;;;;;;;;;;5026995;28;20399;-76
2021/03/10 07:19:58;;;;;;;46.45;32.58;;;;;;;;;;5009915;28;20430;-74
2021/03/10 07:22:24;;;;;;;44.10;31.37;;;;;;;;;;5009950;28;20427;-76
2021/03/10 07:24:53;;;;;;;49.65;33.25;;;;;;;;;;5030836;28;20934;-76
2021/03/10 07:27:20;;;;;;;46.10;31.42;;;;;;;;;;5032657;28;20438;-75
2021/03/10 07:29:46;;;;;;;47.47;32.10;;;;;;;;;;5013989;28;20410;-75
2021/03/10 07:32:16;;;;;;;42.53;30.40;;;;;;;;;;5013159;28;20429;-74
2021/03/10 07:34:42;;;;;;;44.83;30.88;;;;;;;;;;5012586;28;20862;-75
2021/03/10 07:37:15;;;;;;;42.95;30.38;;;;;;;;;;5013460;28;20418;-74
2021/03/10 07:39:42;;;;;;;45.60;31.83;;;;;;;;;;5030126;28;20413;-75
2021/03/10 07:42:11;;;;;;;45.38;32.38;;;;;;;;;;5008611;28;20504;-75
2021/03/10 07:44:37;;;;;;;42.63;31.83;;;;;;;;;;5027955;28;20391;-74
2021/03/10 07:47:08;;;;;;;48.25;32.40;;;;;;;;;;5026977;28;20807;-74
2021/03/10 07:49:34;;;;;;;47.28;33.50;;;;;;;;;;5026449;28;20418;-74
2021/03/10 07:52:07;;;;;;;46.00;31.80;;;;;;;;;;5026968;28;20435;-73
2021/03/10 07:54:33;;;;;;;47.97;33.22;;;;;;;;;;5008894;28;20410;-75
2021/03/10 07:57:19;;;;;;;44.63;32.13;;;;;;;;;;5026628;28;20403;-75
2021/03/10 07:59:58;;;;;;;48.25;32.60;;;;;;;;;;5015229;28;20481;-74
2021/03/10 08:02:25;;;;;;;46.15;33.80;;;;;;;;;;5005533;28;20416;-76
2021/03/10 08:05:07;;;;;;;49.85;33.22;;;;;;;;;;5011330;28;20393;-73
2021/03/10 08:07:33;;;;;;;48.10;34.27;;;;;;;;;;4992107;28;20463;-74
2021/03/10 08:09:59;;;;;;;50.30;35.00;;;;;;;;;;4992147;28;20488;-75
2021/03/10 08:12:33;;;;;;;53.80;37.78;;;;;;;;;;5005594;28;20476;-75
2021/03/10 08:14:59;;;;;;;50.22;36.35;;;;;;;;;;5005393;28;20910;-75
2021/03/10 08:17:26;;;;;;;51.67;36.92;;;;;;;;;;5007382;28;20401;-75
2021/03/10 08:19:54;;;;;;;47.97;35.33;;;;;;;;;;4991285;28;20407;-75
2021/03/10 08:22:21;;;;;;;51.90;37.00;;;;;;;;;;5006225;28;20467;-74
2021/03/10 08:24:47;;;;;;;51.27;35.83;;;;;;;;;;5008009;28;20466;-75
2021/03/10 08:27:13;;;;;;;50.83;36.35;;;;;;;;;;5002163;28;20488;-74
2021/03/10 08:29:46;;;;;;;50.50;35.50;;;;;;;;;;5006988;28;20405;-75
2021/03/10 08:32:22;;;;;;;51.17;35.40;;;;;;;;;;5010067;28;20536;-76
2021/03/10 08:34:49;;;;;;;48.13;35.30;;;;;;;;;;5007004;28;20416;-75
2021/03/10 08:37:15;;;;;;;53.22;37.28;;;;;;;;;;4992197;28;20392;-75
2021/03/10 08:39:42;;;;;;;49.33;37.08;;;;;;;;;;5010045;28;20392;-75
2021/03/10 08:42:09;;;;;;;50.85;36.97;;;;;;;;;;4992582;28;20392;-74
2021/03/10 08:44:42;;;;;;;55.67;39.77;;;;;;;;;;5009183;28;20377;-77
2021/03/10 08:47:12;;;;;;;52.28;37.72;;;;;;;;;;5009557;28;20918;-75
2021/03/10 08:49:38;;;;;;;57.10;39.95;;;;;;;;;;4992161;28;20798;-76
2021/03/10 08:52:05;;;;;;;56.47;39.20;;;;;;;;;;5009483;28;20412;-75
2021/03/10 08:54:31;;;;;;;55.83;39.03;;;;;;;;;;5005863;28;20431;-76
2021/03/10 08:56:57;;;;;;;53.78;39.47;;;;;;;;;;5004532;28;21078;-75
2021/03/10 08:59:33;;;;;;;63.58;40.50;;;;;;;;;;5019561;28;20419;-75
2021/03/10 09:01:59;;;;;;;57.63;41.27;;;;;;;;;;5012014;28;20443;-75
2021/03/10 09:04:26;;;;;;;60.45;40.55;;;;;;;;;;5029282;28;20450;-75
2021/03/10 09:06:56;;;;;;;54.00;39.72;;;;;;;;;;5026636;28;20410;-75
2021/03/10 09:09:22;;;;;;;58.50;41.40;;;;;;;;;;5027194;28;20391;-75
2021/03/10 09:11:50;;;;;;;56.45;41.78;;;;;;;;;;5028737;28;21077;-76
2021/03/10 09:14:16;;;;;;;60.40;41.63;;;;;;;;;;5023358;28;20958;-76
2021/03/10 09:16:51;;;;;;;58.95;42.92;;;;;;;;;;5025955;28;21196;-76
2021/03/10 09:19:28;;;;;;;54.80;40.08;;;;;;;;;;5011154;28;20864;-77
2021/03/10 09:22:04;;;;;;;56.67;41.57;;;;;;;;;;5001375;28;20388;-75
2021/03/10 09:24:30;;;;;;;57.65;40.75;;;;;;;;;;5034654;28;20393;-76
2021/03/10 09:26:57;;;;;;;56.47;40.20;;;;;;;;;;5015527;28;22125;-75
2021/03/10 09:29:23;;;;;;;53.20;38.90;;;;;;;;;;5015465;28;20870;-75
2021/03/10 09:31:53;;;;;;;58.05;40.78;;;;;;;;;;5029090;28;20375;-75
2021/03/10 09:34:19;;;;;;;58.00;40.17;;;;;;;;;;5027900;28;20912;-75
2021/03/10 09:36:46;;;;;;;54.35;39.95;;;;;;;;;;5025326;28;20977;-76
2021/03/10 09:39:14;;;;;;;60.37;41.87;;;;;;;;;;5012010;28;20409;-77
2021/03/10 09:41:46;;;;;;;57.63;40.15;;;;;;;;;;5035239;28;20437;-75
2021/03/10 09:44:12;;;;;;;57.37;38.60;;;;;;;;;;5002844;28;20399;-76
2021/03/10 09:46:43;;;;;;;55.35;38.90;;;;;;;;;;5022586;28;20403;-75
2021/03/10 09:49:09;;;;;;;56.60;39.90;;;;;;;;;;5027142;28;20438;-75
2021/03/10 09:51:45;;;;;;;51.97;37.78;;;;;;;;;;5014826;28;20410;-76
2021/03/10 09:54:11;;;;;;;53.60;37.75;;;;;;;;;;5013281;28;20412;-75
2021/03/10 09:56:39;;;;;;;51.72;37.30;;;;;;;;;;5032040;28;20381;-76
2021/03/10 09:59:11;;;;;;;56.55;39.05;;;;;;;;;;5021888;28;20522;-75
2021/03/10 10:01:43;;;;;;;54.33;38.75;;;;;;;;;;5025170;28;20409;-75
2021/03/10 10:04:13;;;;;;;54.50;38.15;;;;;;;;;;5017279;28;20851;-76
2021/03/10 10:06:51;;;;;;;57.23;37.63;;;;;;;;;;5025992;28;20536;-75
2021/03/10 10:09:17;;;;;;;53.72;38.40;;;;;;;;;;5030746;28;20396;-75
2021/03/10 10:11:43;;;;;;;52.20;38.75;;;;;;;;;;5013530;28;20407;-75
2021/03/10 10:14:09;;;;;;;53.88;38.47;;;;;;;;;;5030714;28;20422;-75
2021/03/10 10:16:38;;;;;;;50.92;37.03;;;;;;;;;;5024521;28;20391;-75
2021/03/10 10:19:05;;;;;;;52.95;36.72;;;;;;;;;;5007987;28;20494;-76
2021/03/10 10:21:31;;;;;;;54.08;38.70;;;;;;;;;;5024564;28;20417;-75
2021/03/10 10:23:59;;;;;;;52.55;37.97;;;;;;;;;;5027530;28;20379;-75
2021/03/10 10:26:25;;;;;;;51.47;38.07;;;;;;;;;;5027902;28;20487;-75
2021/03/10 10:28:51;;;;;;;51.10;37.22;;;;;;;;;;5009642;28;20387;-75
2021/03/10 10:31:17;;;;;;;49.70;37.05;;;;;;;;;;5006479;28;20892;-76
2021/03/10 10:33:43;;;;;;;57.43;38.30;;;;;;;;;;5024420;28;21057;-75
2021/03/10 10:36:09;;;;;;;50.05;37.70;;;;;;;;;;5025778;28;20429;-75
2021/03/10 10:38:35;;;;;;;51.65;37.63;;;;;;;;;;5008246;28;20395;-75
2021/03/10 10:41:01;;;;;;;51.90;38.20;;;;;;;;;;5027428;28;20383;-75
2021/03/10 10:43:29;;;;;;;55.35;38.97;;;;;;;;;;5026634;28;20394;-75
2021/03/10 10:45:55;;;;;;;52.38;37.42;;;;;;;;;;5026379;28;20867;-76
2021/03/10 10:48:21;;;;;;;51.13;36.67;;;;;;;;;;5005652;28;20403;-74
2021/03/10 10:50:47;;;;;;;49.73;36.03;;;;;;;;;;5004694;28;21200;-75
2021/03/10 10:53:13;;;;;;;52.72;36.05;;;;;;;;;;5009028;28;20933;-74
2021/03/10 10:55:39;;;;;;;47.20;34.85;;;;;;;;;;5027277;28;20426;-76
2021/03/10 10:58:05;;;;;;;48.13;36.05;;;;;;;;;;5008105;28;20414;-76
2021/03/10 11:00:31;;;;;;;46.22;34.85;;;;;;;;;;5010147;28;20410;-75
2021/03/10 11:02:57;;;;;;;46.28;33.95;;;;;;;;;;5025789;28;20428;-75
2021/03/10 11:05:23;;;;;;;44.38;33.70;;;;;;;;;;5024963;28;20414;-75
2021/03/10 11:07:49;;;;;;;43.80;33.60;;;;;;;;;;5024538;28;20974;-75
2021/03/10 11:10:15;;;;;;;48.50;34.90;;;;;;;;;;5007708;28;20435;-77
2021/03/10 11:12:41;;;;;;;45.27;32.10;;;;;;;;;;5007377;28;20423;-75
2021/03/10 11:15:08;;;;;;;43.53;31.25;;;;;;;;;;5022918;28;20399;-77
2021/03/10 11:17:34;;;;;;;42.25;30.95;;;;;;;;;;5009246;28;20469;-75
2021/03/10 11:20:00;;;;;;;44.65;31.33;;;;;;;;;;5025817;28;20755;-75
2021/03/10 11:22:25;;;;;;;42.35;29.88;;;;;;;;;;5025384;28;20476;-74
2021/03/10 11:24:51;;;;;;;39.42;29.35;;;;;;;;;;5024778;28;20394;-75
2021/03/10 11:27:21;;;;;;;41.35;30.33;;;;;;;;;;5004083;28;20383;-76
2021/03/10 11:29:47;;;;;;;43.47;30.50;;;;;;;;;;5007697;28;20399;-74
2021/03/10 11:32:13;;;;;;;39.17;30.23;;;;;;;;;;5008326;28;20730;-76
2021/03/10 11:34:39;;;;;;;41.42;30.75;;;;;;;;;;5026080;28;20457;-75
2021/03/10 11:37:07;;;;;;;38.40;29.35;;;;;;;;;;5006621;28;20396;-76
2021/03/10 11:39:33;;;;;;;41.42;29.40;;;;;;;;;;5026028;28;20403;-76
2021/03/10 11:41:59;;;;;;;40.27;29.27;;;;;;;;;;5023817;28;20884;-75
2021/03/10 11:44:25;;;;;;;43.47;29.70;;;;;;;;;;5007198;28;20792;-75
2021/03/10 11:46:53;;;;;;;42.13;28.73;;;;;;;;;;5003925;28;20486;-74
2021/03/10 11:49:19;;;;;;;40.58;29.85;;;;;;;;;;5020062;28;20444;-75
2021/03/10 11:51:45;;;;;;;36.63;29.08;;;;;;;;;;5004982;28;20403;-73
2021/03/10 11:54:12;;;;;;;38.90;29.50;;;;;;;;;;5025934;28;20488;-75
2021/03/10 11:56:38;;;;;;;40.80;29.45;;;;;;;;;;5024875;28;20473;-75
2021/03/10 11:59:04;;;;;;;45.33;29.00;;;;;;;;;;5004353;28;20659;-76
2021/03/10 12:01:30;;;;;;;39.55;28.75;;;;;;;;;;5025887;28;20436;-75
2021/03/10 12:03:57;;;;;;;37.40;27.55;;;;;;;;;;5020196;28;20391;-74
2021/03/10 12:06:23;;;;;;;37.75;28.30;;;;;;;;;;5023366;28;20413;-75
2021/03/10 12:08:49;;;;;;;38.95;28.73;;;;;;;;;;5028676;28;20483;-74
2021/03/10 12:11:14;;;;;;;36.67;27.27;;;;;;;;;;5025436;28;20964;-75
2021/03/10 12:13:40;;;;;;;38.47;27.98;;;;;;;;;;5028203;28;20748;-74
2021/03/10 12:16:06;;;;;;;34.30;26.40;;;;;;;;;;5029862;28;20689;-77
2021/03/10 12:18:32;;;;;;;38.03;27.10;;;;;;;;;;5029696;28;20957;-74
2021/03/10 12:20:58;;;;;;;40.83;28.23;;;;;;;;;;5028093;28;21092;-73
2021/03/10 12:23:24;;;;;;;38.22;27.40;;;;;;;;;;5007793;28;20905;-76
2021/03/10 12:25:50;;;;;;;37.43;26.40;;;;;;;;;;5010584;28;20430;-76
2021/03/10 12:28:16;;;;;;;36.28;26.08;;;;;;;;;;5022325;28;20445;-74
2021/03/10 12:30:42;;;;;;;40.97;26.20;;;;;;;;;;5028359;28;20402;-75
2021/03/10 12:33:08;;;;;;;39.05;26.45;;;;;;;;;;5023496;28;20484;-76
2021/03/10 12:35:34;;;;;;;33.28;25.73;;;;;;;;;;5024260;28;20395;-73
2021/03/10 12:38:00;;;;;;;36.58;27.20;;;;;;;;;;5011117;28;20485;-76
2021/03/10 12:40:26;;;;;;;35.13;27.13;;;;;;;;;;5027677;28;20402;-76
2021/03/10 12:42:52;;;;;;;34.25;25.63;;;;;;;;;;5011240;28;20413;-75
2021/03/10 12:45:19;;;;;;;33.78;25.63;;;;;;;;;;5025463;28;20431;-76
2021/03/10 12:47:45;;;;;;;35.40;25.48;;;;;;;;;;5010473;28;20787;-76
2021/03/10 12:50:11;;;;;;;35.17;26.63;;;;;;;;;;5028109;28;20490;-76
2021/03/10 12:52:37;;;;;;;38.33;25.65;;;;;;;;;;5023653;28;20421;-75
2021/03/10 12:55:03;;;;;;;33.15;24.88;;;;;;;;;;5018211;28;20472;-78
2021/03/10 12:57:29;;;;;;;35.47;26.17;;;;;;;;;;5019787;28;21074;-77
2021/03/10 12:59:55;;;;;;;33.40;24.83;;;;;;;;;;5001040;28;20506;-77
2021/03/10 13:02:22;;;;;;;30.63;23.80;;;;;;;;;;5011474;28;20442;-76
2021/03/10 13:04:48;;;;;;;33.28;24.10;;;;;;;;;;5011224;28;20398;-76
2021/03/10 13:07:14;;;;;;;32.83;24.48;;;;;;;;;;5011336;28;20830;-77
2021/03/10 13:09:39;;;;;;;34.88;25.77;;;;;;;;;;5007503;28;20552;-76
2021/03/10 13:12:06;;;;;;;32.28;23.30;;;;;;;;;;5026434;28;20421;-76
2021/03/10 13:14:32;;;;;;;34.22;24.20;;;;;;;;;;5022734;28;20426;-77
2021/03/10 13:16:58;;;;;;;32.67;23.60;;;;;;;;;;5010769;28;20434;-76
2021/03/10 13:19:24;;;;;;;33.90;24.20;;;;;;;;;;5027612;28;20414;-75
2021/03/10 13:21:50;;;;;;;32.08;24.02;;;;;;;;;;5029183;28;21152;-75
2021/03/10 13:24:16;;;;;;;33.50;23.57;;;;;;;;;;5029386;28;20448;-76
2021/03/10 13:26:43;;;;;;;32.17;23.65;;;;;;;;;;5029288;28;20905;-77
2021/03/10 13:29:09;;;;;;;28.95;22.58;;;;;;;;;;5011369;28;20474;-78
2021/03/10 13:31:35;;;;;;;30.90;23.50;;;;;;;;;;5028576;28;20466;-75
2021/03/10 13:34:01;;;;;;;30.57;22.67;;;;;;;;;;5010774;28;20516;-75
2021/03/10 13:36:27;;;;;;;31.98;23.83;;;;;;;;;;5010580;28;20418;-75
2021/03/10 13:38:53;;;;;;;32.97;23.77;;;;;;;;;;5011459;28;20411;-76
2021/03/10 13:41:19;;;;;;;30.83;23.05;;;;;;;;;;5029010;28;20391;-76
2021/03/10 13:43:45;;;;;;;33.75;22.30;;;;;;;;;;5010700;28;20918;-79
2021/03/10 13:46:11;;;;;;;29.23;22.38;;;;;;;;;;5028392;28;21130;-76
2021/03/10 13:48:37;;;;;;;29.13;22.58;;;;;;;;;;5010627;28;20398;-76
2021/03/10 13:51:03;;;;;;;30.55;23.35;;;;;;;;;;5028108;28;20502;-77
2021/03/10 13:53:29;;;;;;;32.70;24.05;;;;;;;;;;5009967;28;20852;-76
2021/03/10 13:55:55;;;;;;;34.42;22.83;;;;;;;;;;5028010;28;20411;-77
2021/03/10 13:58:21;;;;;;;27.83;22.38;;;;;;;;;;5021816;28;20462;-77
2021/03/10 14:00:48;;;;;;;29.30;22.55;;;;;;;;;;4991391;28;20384;-76
2021/03/10 14:03:14;;;;;;;30.13;23.02;;;;;;;;;;5008640;28;20381;-76
2021/03/10 14:05:40;;;;;;;31.15;23.55;;;;;;;;;;4990980;28;20933;-76
2021/03/10 14:08:07;;;;;;;30.75;23.17;;;;;;;;;;5005518;28;20388;-77
2021/03/10 14:10:33;;;;;;;31.25;23.20;;;;;;;;;;4989181;28;20411;-77
2021/03/10 14:12:59;;;;;;;29.85;22.42;;;;;;;;;;4989382;28;20424;-77
2021/03/10 14:15:25;;;;;;;30.50;22.58;;;;;;;;;;5008884;28;20384;-76